createdAt,value
2022-12-03T00:00:57.834Z,91.95
2022-12-03T00:02:00.851Z,91.64
2022-12-03T00:03:01.012Z,92.36
2022-12-03T00:03:57.927Z,92.61
2022-12-03T00:04:57.788Z,92.78
2022-12-03T00:05:57.762Z,92.88
2022-12-03T00:06:57.770Z,93.10
2022-12-03T00:07:57.829Z,93.30
2022-12-03T00:08:57.719Z,93.20
2022-12-03T00:09:57.709Z,93.24
2022-12-03T00:10:57.704Z,93.76
2022-12-03T00:11:57.737Z,93.76
2022-12-03T00:12:57.678Z,93.76
2022-12-03T00:13:57.649Z,93.76
2022-12-03T00:14:57.896Z,93.66
2022-12-03T00:15:57.668Z,93.55
2022-12-03T00:16:57.614Z,93.87
2022-12-03T00:17:57.712Z,94.07
2022-12-03T00:18:57.591Z,94.38
2022-12-03T00:19:57.560Z,94.18
2022-12-03T00:20:57.562Z,93.97
2022-12-03T00:22:00.614Z,93.66
2022-12-03T00:23:00.552Z,93.76
2022-12-03T00:23:57.517Z,93.66
2022-12-03T00:24:57.511Z,93.76
2022-12-03T00:25:57.492Z,93.45
2022-12-03T00:26:57.474Z,93.87
2022-12-03T00:27:57.512Z,93.97
2022-12-03T00:28:57.472Z,93.87
2022-12-03T00:29:57.452Z,93.87
2022-12-03T00:30:57.444Z,94.07
2022-12-03T00:31:57.426Z,93.76
2022-12-03T00:32:57.408Z,93.97
2022-12-03T00:33:57.414Z,93.66
2022-12-03T00:34:57.387Z,93.76
2022-12-03T00:35:57.357Z,93.97
2022-12-03T00:36:57.352Z,94.59
2022-12-03T00:37:57.335Z,94.59
2022-12-03T00:38:57.395Z,94.59
2022-12-03T00:39:57.297Z,94.49
2022-12-03T00:40:57.287Z,94.28
2022-12-03T00:42:00.281Z,94.18
2022-12-03T00:43:00.277Z,94.28
2022-12-03T00:43:57.247Z,94.07
2022-12-03T00:44:57.270Z,94.38
2022-12-03T00:45:57.348Z,94.28
2022-12-03T00:46:57.318Z,94.07
2022-12-03T00:47:57.200Z,93.87
2022-12-03T00:48:57.189Z,93.87
2022-12-03T00:49:57.219Z,93.76
2022-12-03T00:50:57.159Z,93.76
2022-12-03T00:51:57.152Z,93.55
2022-12-03T00:52:57.148Z,93.14
2022-12-03T00:53:57.110Z,93.14
2022-12-03T00:54:57.117Z,93.35
2022-12-03T00:55:57.167Z,93.24
2022-12-03T00:56:57.086Z,93.03
2022-12-03T00:57:57.071Z,92.61
2022-12-03T00:58:57.050Z,92.30
2022-12-03T00:59:57.040Z,92.10
2022-12-03T01:00:57.021Z,92.10
2022-12-03T01:02:00.088Z,92.20
2022-12-03T01:03:00.011Z,91.99
2022-12-03T01:03:56.981Z,91.68
2022-12-03T01:04:57.417Z,91.62
2022-12-03T01:05:56.951Z,91.89
2022-12-03T01:06:56.981Z,91.93
2022-12-03T01:07:57.027Z,92.03
2022-12-03T01:08:56.942Z,92.14
2022-12-03T01:09:56.901Z,92.61
2022-12-03T01:10:56.890Z,92.76
2022-12-03T01:11:56.873Z,92.86
2022-12-03T01:12:56.865Z,92.72
2022-12-03T01:13:56.881Z,92.86
2022-12-03T01:14:56.840Z,92.97
2022-12-03T01:15:56.912Z,92.86
2022-12-03T01:16:56.814Z,92.55
2022-12-03T01:17:56.794Z,92.76
2022-12-03T01:18:56.816Z,92.66
2022-12-03T01:19:56.804Z,92.55
2022-12-03T01:20:56.762Z,92.24
2022-12-03T01:21:59.745Z,91.83
2022-12-03T01:22:59.763Z,92.45
2022-12-03T01:23:56.714Z,92.55
2022-12-03T01:24:56.715Z,92.97
2022-12-03T01:25:56.726Z,92.86
2022-12-03T01:26:56.676Z,92.86
2022-12-03T01:27:56.655Z,93.39
2022-12-03T01:28:56.646Z,93.39
2022-12-03T01:29:56.665Z,94.01
2022-12-03T01:30:56.716Z,94.32
2022-12-03T01:31:56.606Z,94.64
2022-12-03T01:32:56.589Z,94.43
2022-12-03T01:33:56.585Z,94.32
2022-12-03T01:34:56.991Z,93.91
2022-12-03T01:35:56.546Z,93.80
2022-12-03T01:36:56.537Z,93.80
2022-12-03T01:37:56.526Z,94.12
2022-12-03T01:38:56.549Z,94.12
2022-12-03T01:39:56.501Z,93.70
2022-12-03T01:40:56.487Z,93.91
2022-12-03T01:41:59.498Z,94.57
2022-12-03T01:42:59.470Z,94.84
2022-12-03T01:43:56.449Z,94.78
2022-12-03T01:44:56.439Z,94.68
2022-12-03T01:45:56.470Z,94.57
2022-12-03T01:46:56.454Z,94.47
2022-12-03T01:47:56.424Z,94.37
2022-12-03T01:48:56.379Z,94.78
2022-12-03T01:49:56.387Z,94.78
2022-12-03T01:50:56.361Z,94.78
2022-12-03T01:51:56.343Z,94.47
2022-12-03T01:52:56.351Z,94.47
2022-12-03T01:53:56.346Z,94.26
2022-12-03T01:54:56.634Z,95.09
2022-12-03T01:55:56.296Z,94.99
2022-12-03T01:56:56.275Z,94.89
2022-12-03T01:57:56.268Z,94.99
2022-12-03T01:58:56.283Z,94.89
2022-12-03T01:59:56.233Z,94.78
2022-12-03T02:00:56.213Z,94.47
2022-12-03T02:01:59.262Z,94.16
2022-12-03T02:02:59.237Z,93.43
2022-12-03T02:03:56.281Z,93.12
2022-12-03T02:04:56.466Z,92.60
2022-12-03T02:05:56.159Z,92.91
2022-12-03T02:06:56.159Z,93.01
2022-12-03T02:07:56.217Z,92.60
2022-12-03T02:08:56.111Z,92.33
2022-12-03T02:09:56.096Z,92.02
2022-12-03T02:10:56.085Z,91.91
2022-12-03T02:11:56.078Z,92.12
2022-12-03T02:12:56.056Z,91.81
2022-12-03T02:13:56.105Z,91.60
2022-12-03T02:14:56.166Z,91.60
2022-12-03T02:15:56.081Z,92.02
2022-12-03T02:16:56.007Z,92.02
2022-12-03T02:17:56.008Z,92.64
2022-12-03T02:18:55.976Z,93.27
2022-12-03T02:19:55.997Z,93.48
2022-12-03T02:20:55.946Z,93.05
2022-12-03T02:21:58.944Z,92.85
2022-12-03T02:22:58.941Z,92.74
2022-12-03T02:23:55.915Z,93.05
2022-12-03T02:24:56.156Z,93.37
2022-12-03T02:25:55.888Z,93.27
2022-12-03T02:26:55.876Z,93.05
2022-12-03T02:27:55.880Z,93.68
2022-12-03T02:28:55.848Z,93.37
2022-12-03T02:29:55.863Z,93.16
2022-12-03T02:30:55.829Z,93.16
2022-12-03T02:31:55.979Z,93.79
2022-12-03T02:32:55.806Z,94.20
2022-12-03T02:33:55.778Z,93.89
2022-12-03T02:34:56.176Z,93.79
2022-12-03T02:36:00.399Z,94.41
2022-12-03T02:36:56.750Z,94.51
2022-12-03T02:37:55.728Z,94.20
2022-12-03T02:38:55.720Z,94.41
2022-12-03T02:39:55.749Z,94.82
2022-12-03T02:40:55.686Z,94.72
2022-12-03T02:41:58.696Z,94.76
2022-12-03T02:42:58.680Z,95.35
2022-12-03T02:43:55.643Z,95.50
2022-12-03T02:44:58.377Z,95.25
2022-12-03T02:45:56.672Z,95.50
2022-12-03T02:46:55.689Z,95.29
2022-12-03T02:47:55.593Z,95.08
2022-12-03T02:48:55.575Z,95.50
2022-12-03T02:49:55.575Z,95.39
2022-12-03T02:50:55.559Z,95.29
2022-12-03T02:51:55.583Z,95.08
2022-12-03T02:52:55.526Z,94.76
2022-12-03T02:53:55.505Z,94.24
2022-12-03T02:54:55.944Z,93.93
2022-12-03T02:55:55.508Z,93.62
2022-12-03T02:56:55.480Z,93.73
2022-12-03T02:57:55.460Z,93.62
2022-12-03T02:58:55.461Z,93.93
2022-12-03T02:59:55.448Z,93.41
2022-12-03T03:00:55.471Z,92.99
2022-12-03T03:01:58.499Z,92.68
2022-12-03T03:02:58.412Z,91.75
2022-12-03T03:03:55.385Z,91.53
2022-12-03T03:04:55.591Z,91.12
2022-12-03T03:05:55.356Z,90.91
2022-12-03T03:06:55.343Z,90.81
2022-12-03T03:07:55.408Z,90.29
2022-12-03T03:08:55.316Z,90.08
2022-12-03T03:09:55.310Z,89.98
2022-12-03T03:10:55.329Z,89.66
2022-12-03T03:11:55.265Z,89.45
2022-12-03T03:12:55.285Z,89.76
2022-12-03T03:13:55.261Z,89.91
2022-12-03T03:14:55.472Z,89.70
2022-12-03T03:15:55.302Z,89.81
2022-12-03T03:16:55.306Z,89.60
2022-12-03T03:17:55.193Z,89.81
2022-12-03T03:18:55.184Z,89.91
2022-12-03T03:19:55.155Z,89.50
2022-12-03T03:20:55.174Z,89.39
2022-12-03T03:21:58.175Z,89.29
2022-12-03T03:22:58.144Z,89.18
2022-12-03T03:23:55.118Z,88.98
2022-12-03T03:24:55.322Z,88.76
2022-12-03T03:25:55.087Z,88.98
2022-12-03T03:26:55.074Z,88.87
2022-12-03T03:27:55.106Z,88.66
2022-12-03T03:28:55.054Z,89.18
2022-12-03T03:29:55.036Z,89.81
2022-12-03T03:30:55.019Z,90.01
2022-12-03T03:31:55.062Z,89.70
2022-12-03T03:32:54.988Z,89.39
2022-12-03T03:33:55.006Z,89.18
2022-12-03T03:34:55.274Z,90.44
2022-12-03T03:35:54.947Z,90.54
2022-12-03T03:36:54.949Z,90.64
2022-12-03T03:37:54.957Z,90.44
2022-12-03T03:38:54.938Z,90.33
2022-12-03T03:39:54.898Z,90.44
2022-12-03T03:40:54.878Z,90.22
2022-12-03T03:41:57.881Z,90.75
2022-12-03T03:42:57.872Z,90.95
2022-12-03T03:43:54.868Z,90.64
2022-12-03T03:44:55.162Z,91.16
2022-12-03T03:45:54.843Z,91.06
2022-12-03T03:46:54.807Z,90.95
2022-12-03T03:47:54.790Z,90.85
2022-12-03T03:48:54.781Z,91.89
2022-12-03T03:49:54.760Z,92.25
2022-12-03T03:50:54.781Z,92.97
2022-12-03T03:51:54.739Z,92.77
2022-12-03T03:52:54.730Z,92.87
2022-12-03T03:53:54.711Z,93.29
2022-12-03T03:54:55.039Z,93.08
2022-12-03T03:55:54.711Z,92.97
2022-12-03T03:56:54.680Z,92.77
2022-12-03T03:57:54.652Z,93.40
2022-12-03T03:58:54.642Z,92.87
2022-12-03T03:59:54.631Z,93.18
2022-12-03T04:00:54.651Z,93.18
2022-12-03T04:01:57.633Z,92.97
2022-12-03T04:02:57.611Z,92.66
2022-12-03T04:03:54.691Z,93.29
2022-12-03T04:04:54.773Z,94.02
2022-12-03T04:05:54.543Z,94.02
2022-12-03T04:06:54.577Z,94.12
2022-12-03T04:07:54.596Z,94.02
2022-12-03T04:08:54.513Z,93.71
2022-12-03T04:09:54.492Z,93.29
2022-12-03T04:10:54.484Z,93.40
2022-12-03T04:11:54.507Z,94.37
2022-12-03T04:12:54.454Z,95.00
2022-12-03T04:13:54.444Z,94.90
2022-12-03T04:14:54.581Z,94.90
2022-12-03T04:15:54.414Z,94.37
2022-12-03T04:16:54.495Z,94.48
2022-12-03T04:17:54.385Z,94.90
2022-12-03T04:18:54.395Z,95.10
2022-12-03T04:19:54.375Z,96.15
2022-12-03T04:20:54.354Z,97.92
2022-12-03T04:21:57.378Z,97.61
2022-12-03T04:22:57.349Z,97.71
2022-12-03T04:23:54.305Z,98.38
2022-12-03T04:24:54.643Z,98.28
2022-12-03T04:25:54.337Z,98.38
2022-12-03T04:26:54.285Z,98.28
2022-12-03T04:27:54.547Z,97.97
2022-12-03T04:28:54.267Z,97.65
2022-12-03T04:29:54.226Z,97.55
2022-12-03T04:30:54.275Z,97.97
2022-12-03T04:31:54.216Z,97.75
2022-12-03T04:32:54.198Z,97.55
2022-12-03T04:33:54.197Z,97.03
2022-12-03T04:34:54.548Z,96.92
2022-12-03T04:35:54.214Z,97.28
2022-12-03T04:36:54.153Z,96.86
2022-12-03T04:37:54.138Z,96.34
2022-12-03T04:38:54.116Z,96.13
2022-12-03T04:39:54.127Z,95.92
2022-12-03T04:40:54.090Z,96.03
2022-12-03T04:41:57.085Z,96.03
2022-12-03T04:42:57.086Z,96.13
2022-12-03T04:43:54.057Z,95.92
2022-12-03T04:44:54.372Z,95.92
2022-12-03T04:45:54.053Z,96.13
2022-12-03T04:46:54.015Z,95.82
2022-12-03T04:47:53.999Z,95.61
2022-12-03T04:48:53.986Z,95.72
2022-12-03T04:49:54.019Z,95.50
2022-12-03T04:50:53.961Z,95.09
2022-12-03T04:51:53.940Z,95.09
2022-12-03T04:52:53.937Z,94.98
2022-12-03T04:53:53.910Z,95.72
2022-12-03T04:54:54.209Z,95.40
2022-12-03T04:55:53.923Z,94.88
2022-12-03T04:56:53.882Z,94.98
2022-12-03T04:57:53.869Z,94.78
2022-12-03T04:58:53.854Z,94.57
2022-12-03T04:59:53.879Z,94.15
2022-12-03T05:00:53.872Z,93.94
2022-12-03T05:01:56.808Z,94.19
2022-12-03T05:02:56.883Z,94.50
2022-12-03T05:03:53.792Z,94.09
2022-12-03T05:04:54.142Z,93.98
2022-12-03T05:05:53.751Z,93.57
2022-12-03T05:06:53.761Z,93.35
2022-12-03T05:07:53.800Z,93.15
2022-12-03T05:08:53.732Z,92.94
2022-12-03T05:09:53.752Z,92.73
2022-12-03T05:10:53.702Z,92.52
2022-12-03T05:11:53.693Z,92.31
2022-12-03T05:12:53.672Z,92.10
2022-12-03T05:13:53.653Z,92.41
2022-12-03T05:14:53.910Z,92.00
2022-12-03T05:15:53.663Z,91.89
2022-12-03T05:16:53.713Z,92.10
2022-12-03T05:17:53.593Z,92.31
2022-12-03T05:18:53.590Z,92.00
2022-12-03T05:19:53.573Z,92.10
2022-12-03T05:20:53.905Z,92.10
2022-12-03T05:21:56.585Z,92.00
2022-12-03T05:22:56.565Z,91.79
2022-12-03T05:23:53.524Z,91.69
2022-12-03T05:24:53.724Z,91.58
2022-12-03T05:25:53.496Z,91.37
2022-12-03T05:26:53.498Z,91.06
2022-12-03T05:27:53.506Z,92.21
2022-12-03T05:28:53.465Z,92.21
2022-12-03T05:29:53.449Z,92.41
2022-12-03T05:30:53.472Z,93.57
2022-12-03T05:31:53.426Z,93.35
2022-12-03T05:32:53.416Z,93.46
2022-12-03T05:33:53.416Z,93.46
2022-12-03T05:34:53.635Z,94.40
2022-12-03T05:35:53.369Z,94.61
2022-12-03T05:36:53.356Z,94.50
2022-12-03T05:37:53.340Z,94.50
2022-12-03T05:38:53.385Z,94.19
2022-12-03T05:39:53.317Z,95.03
2022-12-03T05:40:53.316Z,94.92
2022-12-03T05:41:56.287Z,95.34
2022-12-03T05:42:56.298Z,95.65
2022-12-03T05:43:53.256Z,96.07
2022-12-03T05:44:53.523Z,95.86
2022-12-03T05:45:53.275Z,95.34
2022-12-03T05:46:53.228Z,95.44
2022-12-03T05:47:53.217Z,95.44
2022-12-03T05:48:53.219Z,95.55
2022-12-03T05:49:53.210Z,96.17
2022-12-03T05:50:53.177Z,95.97
2022-12-03T05:51:58.247Z,95.55
2022-12-03T05:52:54.150Z,95.86
2022-12-03T05:53:53.130Z,95.44
2022-12-03T05:54:53.456Z,95.44
2022-12-03T05:55:53.128Z,95.86
2022-12-03T05:56:53.126Z,96.28
2022-12-03T05:57:53.070Z,96.59
2022-12-03T05:58:53.072Z,96.70
2022-12-03T05:59:53.066Z,96.59
2022-12-03T06:00:53.099Z,96.70
2022-12-03T06:01:56.022Z,97.05
2022-12-03T06:02:56.189Z,97.32
2022-12-03T06:03:53.113Z,97.11
2022-12-03T06:04:53.217Z,97.47
2022-12-03T06:05:52.982Z,97.32
2022-12-03T06:06:52.953Z,97.43
2022-12-03T06:07:52.996Z,97.89
2022-12-03T06:08:52.932Z,97.89
2022-12-03T06:09:52.923Z,97.53
2022-12-03T06:10:52.939Z,97.68
2022-12-03T06:11:52.890Z,97.58
2022-12-03T06:12:52.873Z,98.31
2022-12-03T06:13:52.863Z,97.78
2022-12-03T06:14:53.243Z,97.78
2022-12-03T06:15:52.975Z,97.37
2022-12-03T06:16:52.824Z,97.16
2022-12-03T06:17:52.825Z,96.84
2022-12-03T06:18:52.797Z,96.95
2022-12-03T06:19:52.803Z,97.16
2022-12-03T06:20:52.791Z,97.16
2022-12-03T06:21:55.784Z,97.47
2022-12-03T06:22:55.765Z,97.16
2022-12-03T06:23:52.737Z,96.84
2022-12-03T06:24:53.105Z,96.64
2022-12-03T06:25:52.735Z,96.33
2022-12-03T06:26:52.701Z,96.11
2022-12-03T06:27:52.702Z,95.80
2022-12-03T06:28:52.685Z,95.59
2022-12-03T06:29:52.715Z,95.59
2022-12-03T06:30:52.757Z,95.59
2022-12-03T06:31:52.635Z,95.80
2022-12-03T06:32:52.616Z,96.01
2022-12-03T06:33:52.614Z,96.22
2022-12-03T06:34:52.909Z,95.90
2022-12-03T06:35:52.591Z,95.49
2022-12-03T06:36:52.601Z,95.17
2022-12-03T06:37:52.548Z,95.07
2022-12-03T06:38:52.538Z,95.38
2022-12-03T06:39:52.527Z,96.53
2022-12-03T06:40:52.540Z,96.95
2022-12-03T06:41:55.529Z,97.27
2022-12-03T06:42:55.489Z,98.41
2022-12-03T06:43:52.476Z,99.46
2022-12-03T06:44:53.003Z,99.25
2022-12-03T06:45:52.441Z,99.56
2022-12-03T06:46:52.495Z,99.99
2022-12-03T06:47:52.432Z,99.99
2022-12-03T06:48:52.400Z,99.99
2022-12-03T06:49:52.417Z,99.99
2022-12-03T06:50:52.382Z,99.99
2022-12-03T06:51:52.359Z,99.92
2022-12-03T06:52:52.340Z,99.40
2022-12-03T06:53:52.342Z,99.99
2022-12-03T06:54:52.814Z,99.82
2022-12-03T06:55:52.312Z,99.71
2022-12-03T06:56:52.361Z,99.19
2022-12-03T06:57:52.290Z,99.40
2022-12-03T06:58:52.270Z,99.82
2022-12-03T06:59:52.654Z,99.82
2022-12-03T07:00:52.251Z,99.51
2022-12-03T07:01:55.315Z,99.51
2022-12-03T07:02:55.240Z,99.08
2022-12-03T07:03:52.216Z,99.08
2022-12-03T07:04:52.191Z,99.19
2022-12-03T07:05:52.226Z,99.29
2022-12-03T07:06:52.163Z,99.08
2022-12-03T07:07:52.379Z,99.08
2022-12-03T07:08:52.141Z,98.88
2022-12-03T07:09:52.133Z,98.88
2022-12-03T07:10:52.116Z,99.19
2022-12-03T07:11:52.154Z,98.77
2022-12-03T07:12:52.097Z,98.67
2022-12-03T07:13:52.077Z,98.56
2022-12-03T07:14:52.472Z,98.25
2022-12-03T07:15:52.083Z,98.14
2022-12-03T07:16:52.027Z,98.25
2022-12-03T07:17:52.073Z,98.46
2022-12-03T07:18:52.004Z,98.25
2022-12-03T07:19:51.998Z,98.46
2022-12-03T07:20:52.007Z,98.14
2022-12-03T07:21:54.975Z,98.25
2022-12-03T07:22:55.000Z,98.56
2022-12-03T07:23:51.949Z,99.08
2022-12-03T07:24:52.320Z,99.19
2022-12-03T07:25:51.919Z,99.82
2022-12-03T07:26:51.897Z,99.51
2022-12-03T07:27:51.888Z,99.51
2022-12-03T07:28:51.877Z,99.61
2022-12-03T07:29:51.876Z,99.61
2022-12-03T07:30:52.068Z,99.40
2022-12-03T07:31:52.021Z,99.40
2022-12-03T07:32:51.823Z,99.61
2022-12-03T07:33:51.826Z,99.51
2022-12-03T07:34:52.128Z,99.99
2022-12-03T07:35:51.790Z,99.99
2022-12-03T07:36:51.809Z,99.92
2022-12-03T07:37:51.760Z,99.99
2022-12-03T07:38:51.740Z,99.99
2022-12-03T07:39:51.729Z,99.99
2022-12-03T07:40:51.731Z,99.99
2022-12-03T07:41:54.749Z,99.71
2022-12-03T07:42:54.711Z,99.99
2022-12-03T07:43:51.679Z,99.99
2022-12-03T07:44:52.028Z,99.99
2022-12-03T07:45:51.645Z,99.99
2022-12-03T07:46:51.683Z,99.99
2022-12-03T07:47:51.661Z,99.99
2022-12-03T07:48:51.600Z,99.99
2022-12-03T07:49:51.583Z,99.99
2022-12-03T07:50:51.582Z,99.99
2022-12-03T07:51:51.562Z,99.99
2022-12-03T07:52:51.557Z,99.99
2022-12-03T07:53:51.563Z,99.99
2022-12-03T07:54:51.921Z,99.99
2022-12-03T07:55:51.513Z,99.99
2022-12-03T07:56:54.334Z,99.99
2022-12-03T07:57:52.483Z,99.99
2022-12-03T07:58:51.504Z,99.99
2022-12-03T07:59:51.452Z,99.99
2022-12-03T08:00:51.483Z,99.99
2022-12-03T08:01:54.496Z,99.99
2022-12-03T08:02:54.427Z,99.99
2022-12-03T08:03:51.400Z,99.99
2022-12-03T08:04:51.603Z,99.99
2022-12-03T08:05:51.366Z,99.99
2022-12-03T08:06:51.346Z,99.99
2022-12-03T08:07:51.417Z,99.99
2022-12-03T08:08:51.330Z,99.99
2022-12-03T08:09:51.355Z,99.99
2022-12-03T08:10:51.297Z,99.61
2022-12-03T08:11:51.316Z,99.51
2022-12-03T08:12:51.267Z,99.92
2022-12-03T08:13:51.256Z,99.51
2022-12-03T08:14:51.514Z,99.19
2022-12-03T08:15:51.274Z,99.65
2022-12-03T08:16:51.287Z,99.61
2022-12-03T08:17:51.208Z,99.40
2022-12-03T08:18:51.195Z,99.19
2022-12-03T08:19:51.177Z,99.19
2022-12-03T08:20:51.177Z,99.99
2022-12-03T08:22:00.917Z,99.99
2022-12-03T08:22:55.150Z,99.99
2022-12-03T08:23:51.117Z,99.99
2022-12-03T08:24:51.332Z,99.99
2022-12-03T08:25:51.161Z,99.99
2022-12-03T08:26:51.089Z,99.71
2022-12-03T08:27:51.061Z,99.82
2022-12-03T08:28:51.052Z,99.92
2022-12-03T08:29:51.037Z,99.99
2022-12-03T08:30:51.019Z,99.99
2022-12-03T08:31:51.082Z,99.99
2022-12-03T08:32:51.002Z,99.99
2022-12-03T08:33:50.980Z,99.99
2022-12-03T08:34:51.282Z,99.99
2022-12-03T08:35:50.984Z,99.99
2022-12-03T08:36:50.952Z,99.99
2022-12-03T08:37:50.950Z,99.99
2022-12-03T08:38:50.913Z,99.99
2022-12-03T08:39:50.900Z,99.99
2022-12-03T08:40:50.889Z,99.99
2022-12-03T08:41:53.879Z,99.99
2022-12-03T08:42:53.912Z,99.99
2022-12-03T08:43:50.842Z,99.99
2022-12-03T08:44:51.006Z,99.99
2022-12-03T08:45:50.854Z,99.99
2022-12-03T08:46:50.811Z,99.99
2022-12-03T08:47:50.801Z,99.99
2022-12-03T08:48:50.812Z,99.99
2022-12-03T08:49:50.775Z,99.99
2022-12-03T08:50:50.761Z,99.99
2022-12-03T08:51:50.743Z,99.99
2022-12-03T08:52:50.764Z,99.99
2022-12-03T08:53:50.714Z,99.99
2022-12-03T08:54:51.040Z,99.99
2022-12-03T08:55:50.693Z,99.99
2022-12-03T08:56:50.674Z,99.99
2022-12-03T08:57:50.664Z,99.99
2022-12-03T08:58:50.672Z,99.99
2022-12-03T08:59:50.644Z,99.99
2022-12-03T09:00:50.663Z,99.99
2022-12-03T09:01:53.653Z,99.99
2022-12-03T09:02:53.605Z,99.99
2022-12-03T09:03:50.681Z,99.99
2022-12-03T09:04:50.566Z,99.99
2022-12-03T09:05:50.554Z,99.99
2022-12-03T09:06:50.543Z,99.99
2022-12-03T09:07:50.610Z,99.99
2022-12-03T09:08:50.528Z,99.99
2022-12-03T09:09:59.240Z,99.99
2022-12-03T09:10:50.507Z,99.99
2022-12-03T09:11:50.560Z,99.99
2022-12-03T09:12:50.466Z,99.99
2022-12-03T09:13:50.445Z,99.99
2022-12-03T09:14:50.505Z,99.99
2022-12-03T09:15:50.426Z,99.99
2022-12-03T09:16:50.491Z,99.99
2022-12-03T09:17:50.395Z,99.99
2022-12-03T09:18:50.394Z,99.99
2022-12-03T09:19:50.385Z,99.99
2022-12-03T09:20:50.408Z,99.99
2022-12-03T09:21:53.352Z,99.99
2022-12-03T09:22:53.346Z,99.99
2022-12-03T09:23:50.309Z,99.99
2022-12-03T09:24:50.315Z,99.99
2022-12-03T09:25:50.288Z,99.99
2022-12-03T09:26:50.306Z,99.99
2022-12-03T09:27:50.277Z,99.99
2022-12-03T09:28:50.247Z,99.99
2022-12-03T09:29:50.267Z,99.99
2022-12-03T09:30:50.219Z,99.99
2022-12-03T09:31:50.248Z,99.99
2022-12-03T09:32:50.197Z,99.99
2022-12-03T09:33:50.194Z,99.99
2022-12-03T09:34:50.233Z,99.99
2022-12-03T09:35:50.163Z,99.99
2022-12-03T09:36:50.155Z,99.99
2022-12-03T09:37:50.133Z,99.99
2022-12-03T09:38:50.120Z,99.99
2022-12-03T09:39:50.102Z,99.99
2022-12-03T09:40:50.130Z,99.99
2022-12-03T09:41:53.071Z,99.99
2022-12-03T09:42:53.073Z,99.99
2022-12-03T09:44:04.006Z,99.99
2022-12-03T09:44:51.347Z,99.99
2022-12-03T09:45:50.060Z,99.99
2022-12-03T09:46:50.042Z,99.99
2022-12-03T09:47:49.994Z,99.99
2022-12-03T09:48:49.991Z,99.99
2022-12-03T09:49:49.979Z,99.99
2022-12-03T09:50:49.966Z,99.99
2022-12-03T09:51:49.978Z,99.99
2022-12-03T09:52:49.934Z,99.99
2022-12-03T09:53:49.926Z,99.99
2022-12-03T09:54:49.911Z,99.99
2022-12-03T09:55:49.911Z,99.99
2022-12-03T09:56:49.942Z,99.99
2022-12-03T09:57:49.879Z,99.99
2022-12-03T09:58:49.865Z,99.99
2022-12-03T09:59:49.891Z,99.99
2022-12-03T10:00:49.819Z,99.99
2022-12-03T10:01:52.949Z,99.99
2022-12-03T10:02:52.835Z,99.99
2022-12-03T10:03:49.785Z,99.99
2022-12-03T10:04:49.965Z,99.99
2022-12-03T10:05:49.756Z,99.99
2022-12-03T10:06:49.755Z,99.99
2022-12-03T10:07:49.867Z,99.99
2022-12-03T10:08:49.725Z,99.99
2022-12-03T10:09:49.733Z,99.99
2022-12-03T10:10:49.693Z,99.99
2022-12-03T10:11:49.686Z,99.99
2022-12-03T10:12:49.686Z,99.99
2022-12-03T10:13:49.658Z,99.99
2022-12-03T10:14:49.634Z,99.99
2022-12-03T10:15:49.636Z,99.99
2022-12-03T10:16:49.745Z,99.99
2022-12-03T10:17:49.627Z,99.99
2022-12-03T10:18:49.588Z,99.99
2022-12-03T10:19:49.567Z,99.99
2022-12-03T10:20:49.598Z,99.99
2022-12-03T10:21:52.551Z,99.99
2022-12-03T10:22:52.548Z,99.99
2022-12-03T10:23:54.927Z,99.99
2022-12-03T10:24:50.625Z,99.99
2022-12-03T10:25:49.539Z,99.99
2022-12-03T10:26:49.479Z,99.99
2022-12-03T10:27:49.469Z,99.99
2022-12-03T10:28:49.460Z,99.99
2022-12-03T10:29:49.439Z,99.99
2022-12-03T10:30:49.488Z,99.99
2022-12-03T10:31:49.492Z,99.99
2022-12-03T10:32:49.406Z,99.99
2022-12-03T10:33:49.390Z,99.99
2022-12-03T10:34:49.386Z,99.99
2022-12-03T10:35:49.368Z,99.99
2022-12-03T10:36:49.350Z,99.99
2022-12-03T10:37:49.376Z,99.99
2022-12-03T10:38:49.347Z,99.99
2022-12-03T10:39:55.459Z,99.99
2022-12-03T10:40:50.302Z,99.99
2022-12-03T10:41:52.283Z,99.99
2022-12-03T10:42:52.354Z,99.99
2022-12-03T10:43:49.252Z,99.99
2022-12-03T10:44:49.251Z,99.99
2022-12-03T10:45:49.273Z,99.99
2022-12-03T10:46:49.354Z,99.99
2022-12-03T10:47:49.238Z,99.99
2022-12-03T10:48:49.223Z,99.99
2022-12-03T10:49:49.184Z,99.99
2022-12-03T10:50:49.164Z,99.99
2022-12-03T10:51:49.153Z,99.99
2022-12-03T10:52:49.134Z,99.99
2022-12-03T10:53:49.147Z,99.99
2022-12-03T10:54:49.115Z,99.99
2022-12-03T10:55:49.095Z,99.99
2022-12-03T10:56:49.095Z,99.99
2022-12-03T10:57:49.064Z,99.99
2022-12-03T10:58:49.116Z,99.99
2022-12-03T10:59:49.044Z,99.99
2022-12-03T11:00:49.036Z,99.99
2022-12-03T11:01:52.112Z,99.99
2022-12-03T11:02:56.752Z,99.99
2022-12-03T11:03:50.211Z,99.99
2022-12-03T11:04:48.987Z,99.99
2022-12-03T11:05:48.985Z,99.99
2022-12-03T11:06:48.954Z,99.99
2022-12-03T11:07:49.006Z,99.99
2022-12-03T11:08:54.674Z,99.99
2022-12-03T11:09:49.908Z,99.99
2022-12-03T11:10:48.928Z,99.99
2022-12-03T11:11:48.888Z,99.99
2022-12-03T11:12:48.873Z,99.99
2022-12-03T11:13:48.849Z,99.99
2022-12-03T11:14:48.870Z,99.99
2022-12-03T11:15:48.918Z,99.99
2022-12-03T11:16:48.822Z,99.99
2022-12-03T11:17:48.878Z,99.99
2022-12-03T11:18:48.801Z,99.99
2022-12-03T11:19:48.820Z,99.99
2022-12-03T11:20:48.769Z,99.99
2022-12-03T11:21:51.764Z,99.99
2022-12-03T11:22:51.758Z,99.99
2022-12-03T11:23:48.767Z,99.99
2022-12-03T11:24:48.741Z,99.99
2022-12-03T11:25:48.699Z,99.99
2022-12-03T11:26:48.695Z,99.99
2022-12-03T11:27:48.691Z,99.99
2022-12-03T11:28:48.652Z,99.99
2022-12-03T11:29:48.670Z,99.99
2022-12-03T11:30:48.793Z,99.99
2022-12-03T11:31:48.679Z,99.99
2022-12-03T11:32:48.612Z,99.99
2022-12-03T11:33:48.603Z,99.99
2022-12-03T11:34:48.612Z,99.99
2022-12-03T11:35:48.613Z,99.99
2022-12-03T11:37:01.477Z,99.99
2022-12-03T11:37:49.534Z,99.99
2022-12-03T11:38:53.012Z,99.99
2022-12-03T11:39:49.530Z,99.99
2022-12-03T11:40:48.531Z,99.99
2022-12-03T11:41:51.483Z,99.99
2022-12-03T11:42:51.495Z,99.99
2022-12-03T11:43:48.454Z,99.99
2022-12-03T11:44:48.444Z,99.99
2022-12-03T11:45:48.434Z,99.99
2022-12-03T11:46:48.534Z,99.99
2022-12-03T11:47:48.405Z,99.99
2022-12-03T11:48:48.404Z,99.99
2022-12-03T11:49:48.388Z,99.99
2022-12-03T11:50:48.363Z,99.99
2022-12-03T11:51:48.404Z,99.99
2022-12-03T11:52:48.336Z,99.99
2022-12-03T11:53:48.326Z,99.99
2022-12-03T11:54:48.324Z,99.99
2022-12-03T11:55:48.315Z,99.99
2022-12-03T11:56:48.306Z,99.99
2022-12-03T11:57:48.322Z,99.99
2022-12-03T11:58:48.279Z,99.99
2022-12-03T11:59:48.256Z,99.99
2022-12-03T12:00:48.268Z,99.99
2022-12-03T12:01:51.247Z,99.99
2022-12-03T12:02:51.356Z,99.99
2022-12-03T12:03:48.383Z,99.99
2022-12-03T12:04:48.185Z,99.99
2022-12-03T12:05:48.184Z,99.99
2022-12-03T12:06:53.218Z,99.99
2022-12-03T12:07:49.247Z,99.99
2022-12-03T12:08:48.170Z,99.99
2022-12-03T12:09:48.138Z,99.99
2022-12-03T12:10:48.149Z,99.99
2022-12-03T12:11:48.100Z,99.99
2022-12-03T12:12:54.719Z,99.99
2022-12-03T12:13:49.110Z,99.99
2022-12-03T12:14:48.048Z,99.99
2022-12-03T12:15:48.085Z,99.99
2022-12-03T12:16:48.103Z,99.99
2022-12-03T12:17:48.010Z,99.99
2022-12-03T12:18:51.141Z,99.99
2022-12-03T12:19:54.232Z,99.99
2022-12-03T12:20:48.969Z,99.99
2022-12-03T12:21:50.990Z,99.99
2022-12-03T12:22:50.997Z,99.99
2022-12-03T12:23:47.960Z,99.99
2022-12-03T12:24:47.985Z,99.99
2022-12-03T12:25:53.746Z,99.99
2022-12-03T12:26:48.911Z,99.99
2022-12-03T12:27:47.890Z,99.99
2022-12-03T12:28:47.896Z,99.99
2022-12-03T12:29:47.872Z,99.99
2022-12-03T12:30:47.872Z,99.99
2022-12-03T12:31:53.501Z,99.99
2022-12-03T12:32:48.847Z,99.99
2022-12-03T12:33:47.805Z,99.99
2022-12-03T12:34:47.825Z,99.99
2022-12-03T12:35:47.809Z,99.99
2022-12-03T12:36:47.807Z,99.99
2022-12-03T12:37:50.154Z,99.99
2022-12-03T12:38:48.733Z,99.99
2022-12-03T12:39:47.734Z,99.99
2022-12-03T12:40:47.752Z,99.99
2022-12-03T12:41:50.696Z,99.99
2022-12-03T12:42:50.706Z,99.99
2022-12-03T12:43:47.674Z,99.99
2022-12-03T12:44:47.645Z,99.99
2022-12-03T12:45:47.668Z,99.99
2022-12-03T12:46:48.730Z,99.99
2022-12-03T12:47:47.670Z,99.99
2022-12-03T12:48:47.609Z,99.99
2022-12-03T12:49:51.749Z,99.99
2022-12-03T12:50:47.614Z,99.99
2022-12-03T12:51:47.560Z,99.99
2022-12-03T12:52:47.573Z,99.99